sensor_id;sensor_type;location;lat;lon;timestamp;temperature;humidity
20057;DHT22;10189;49.546;7.906;2022-07-10T00:00:41;14.50;74.70
20057;DHT22;10189;49.546;7.906;2022-07-10T00:03:07;14.50;74.80
20057;DHT22;10189;49.546;7.906;2022-07-10T00:05:33;14.40;75.00
20057;DHT22;10189;49.546;7.906;2022-07-10T00:08:01;14.40;74.90
20057;DHT22;10189;49.546;7.906;2022-07-10T00:10:27;14.40;75.00
20057;DHT22;10189;49.546;7.906;2022-07-10T00:12:54;14.50;74.30
20057;DHT22;10189;49.546;7.906;2022-07-10T00:15:21;14.40;74.30
20057;DHT22;10189;49.546;7.906;2022-07-10T00:17:47;14.30;74.20
20057;DHT22;10189;49.546;7.906;2022-07-10T00:20:14;14.30;74.40
20057;DHT22;10189;49.546;7.906;2022-07-10T00:22:40;14.30;74.80
20057;DHT22;10189;49.546;7.906;2022-07-10T00:25:09;14.20;75.00
20057;DHT22;10189;49.546;7.906;2022-07-10T00:27:37;14.30;75.10
20057;DHT22;10189;49.546;7.906;2022-07-10T00:30:04;14.30;74.80
20057;DHT22;10189;49.546;7.906;2022-07-10T00:32:31;14.20;74.20
20057;DHT22;10189;49.546;7.906;2022-07-10T00:34:58;14.20;74.50
20057;DHT22;10189;49.546;7.906;2022-07-10T00:37:24;14.20;74.30
20057;DHT22;10189;49.546;7.906;2022-07-10T00:39:50;14.10;74.80
20057;DHT22;10189;49.546;7.906;2022-07-10T00:42:16;14.10;74.90
20057;DHT22;10189;49.546;7.906;2022-07-10T00:44:43;14.00;75.20
20057;DHT22;10189;49.546;7.906;2022-07-10T00:47:10;13.90;75.50
20057;DHT22;10189;49.546;7.906;2022-07-10T00:49:37;13.90;75.70
20057;DHT22;10189;49.546;7.906;2022-07-10T00:52:07;13.80;76.00
20057;DHT22;10189;49.546;7.906;2022-07-10T00:54:41;13.80;76.20
20057;DHT22;10189;49.546;7.906;2022-07-10T00:57:12;13.70;76.50
20057;DHT22;10189;49.546;7.906;2022-07-10T00:59:40;13.80;76.40
20057;DHT22;10189;49.546;7.906;2022-07-10T01:02:06;13.80;76.20
20057;DHT22;10189;49.546;7.906;2022-07-10T01:04:33;13.60;76.50
20057;DHT22;10189;49.546;7.906;2022-07-10T01:06:59;13.50;76.90
20057;DHT22;10189;49.546;7.906;2022-07-10T01:09:26;13.50;77.50
20057;DHT22;10189;49.546;7.906;2022-07-10T01:11:56;13.40;77.50
20057;DHT22;10189;49.546;7.906;2022-07-10T01:14:25;13.50;77.30
20057;DHT22;10189;49.546;7.906;2022-07-10T01:16:52;13.50;77.60
20057;DHT22;10189;49.546;7.906;2022-07-10T01:19:19;13.60;77.50
20057;DHT22;10189;49.546;7.906;2022-07-10T01:21:45;13.60;77.10
20057;DHT22;10189;49.546;7.906;2022-07-10T01:24:11;13.60;77.40
20057;DHT22;10189;49.546;7.906;2022-07-10T01:26:38;13.70;76.90
20057;DHT22;10189;49.546;7.906;2022-07-10T01:29:10;13.70;76.90
20057;DHT22;10189;49.546;7.906;2022-07-10T01:31:37;13.70;76.60
20057;DHT22;10189;49.546;7.906;2022-07-10T01:34:06;13.70;76.60
20057;DHT22;10189;49.546;7.906;2022-07-10T01:36:37;13.80;76.50
20057;DHT22;10189;49.546;7.906;2022-07-10T01:39:04;13.80;75.80
20057;DHT22;10189;49.546;7.906;2022-07-10T01:41:31;13.90;75.60
20057;DHT22;10189;49.546;7.906;2022-07-10T01:43:56;13.90;75.40
20057;DHT22;10189;49.546;7.906;2022-07-10T01:46:22;14.00;75.00
20057;DHT22;10189;49.546;7.906;2022-07-10T01:48:49;13.90;74.40
20057;DHT22;10189;49.546;7.906;2022-07-10T01:51:15;13.90;74.80
20057;DHT22;10189;49.546;7.906;2022-07-10T01:53:41;13.90;74.70
20057;DHT22;10189;49.546;7.906;2022-07-10T01:56:09;13.80;75.00
20057;DHT22;10189;49.546;7.906;2022-07-10T01:58:37;13.70;75.20
20057;DHT22;10189;49.546;7.906;2022-07-10T02:01:04;13.50;75.70
20057;DHT22;10189;49.546;7.906;2022-07-10T02:03:31;13.40;76.40
20057;DHT22;10189;49.546;7.906;2022-07-10T02:06:16;13.20;77.00
20057;DHT22;10189;49.546;7.906;2022-07-10T02:08:42;13.10;77.60
20057;DHT22;10189;49.546;7.906;2022-07-10T02:11:08;13.00;78.30
20057;DHT22;10189;49.546;7.906;2022-07-10T02:13:34;13.00;77.90
20057;DHT22;10189;49.546;7.906;2022-07-10T02:16:00;13.00;78.20
20057;DHT22;10189;49.546;7.906;2022-07-10T02:18:26;13.10;78.10
20057;DHT22;10189;49.546;7.906;2022-07-10T02:20:52;13.20;77.80
20057;DHT22;10189;49.546;7.906;2022-07-10T02:23:18;13.20;77.10
20057;DHT22;10189;49.546;7.906;2022-07-10T02:25:44;13.10;77.10
20057;DHT22;10189;49.546;7.906;2022-07-10T02:28:10;12.80;77.70
20057;DHT22;10189;49.546;7.906;2022-07-10T02:30:36;12.60;78.40
20057;DHT22;10189;49.546;7.906;2022-07-10T02:33:03;12.50;78.80
20057;DHT22;10189;49.546;7.906;2022-07-10T02:35:29;12.50;79.10
20057;DHT22;10189;49.546;7.906;2022-07-10T02:37:55;12.40;79.40
20057;DHT22;10189;49.546;7.906;2022-07-10T02:40:21;12.40;79.50
20057;DHT22;10189;49.546;7.906;2022-07-10T02:42:47;12.40;79.40
20057;DHT22;10189;49.546;7.906;2022-07-10T02:45:13;12.50;79.60
20057;DHT22;10189;49.546;7.906;2022-07-10T02:47:39;12.50;79.20
20057;DHT22;10189;49.546;7.906;2022-07-10T02:50:05;12.60;78.80
20057;DHT22;10189;49.546;7.906;2022-07-10T02:52:32;12.60;78.80
20057;DHT22;10189;49.546;7.906;2022-07-10T02:54:58;12.60;79.40
20057;DHT22;10189;49.546;7.906;2022-07-10T02:57:24;12.60;79.20
20057;DHT22;10189;49.546;7.906;2022-07-10T02:59:50;12.60;78.90
20057;DHT22;10189;49.546;7.906;2022-07-10T03:02:16;12.70;79.10
20057;DHT22;10189;49.546;7.906;2022-07-10T03:04:42;12.80;78.20
20057;DHT22;10189;49.546;7.906;2022-07-10T03:07:08;12.80;78.30
20057;DHT22;10189;49.546;7.906;2022-07-10T03:09:34;12.80;77.60
20057;DHT22;10189;49.546;7.906;2022-07-10T03:12:00;12.80;77.90
20057;DHT22;10189;49.546;7.906;2022-07-10T03:14:26;12.80;77.50
20057;DHT22;10189;49.546;7.906;2022-07-10T03:16:52;12.70;77.00
20057;DHT22;10189;49.546;7.906;2022-07-10T03:19:18;12.80;77.60
20057;DHT22;10189;49.546;7.906;2022-07-10T03:21:44;12.80;76.90
20057;DHT22;10189;49.546;7.906;2022-07-10T03:24:11;12.80;77.60
20057;DHT22;10189;49.546;7.906;2022-07-10T03:26:37;12.90;77.40
20057;DHT22;10189;49.546;7.906;2022-07-10T03:29:03;12.90;75.80
20057;DHT22;10189;49.546;7.906;2022-07-10T03:31:29;12.70;75.90
20057;DHT22;10189;49.546;7.906;2022-07-10T03:33:55;12.60;76.30
20057;DHT22;10189;49.546;7.906;2022-07-10T03:36:21;12.50;76.10
20057;DHT22;10189;49.546;7.906;2022-07-10T03:38:47;12.60;76.30
20057;DHT22;10189;49.546;7.906;2022-07-10T03:41:14;12.60;76.30
20057;DHT22;10189;49.546;7.906;2022-07-10T03:43:40;12.60;75.40
20057;DHT22;10189;49.546;7.906;2022-07-10T03:46:06;12.60;75.70
20057;DHT22;10189;49.546;7.906;2022-07-10T03:48:32;12.60;74.60
20057;DHT22;10189;49.546;7.906;2022-07-10T03:50:59;12.60;75.80
20057;DHT22;10189;49.546;7.906;2022-07-10T03:53:26;12.60;75.70
20057;DHT22;10189;49.546;7.906;2022-07-10T03:55:52;12.60;75.00
20057;DHT22;10189;49.546;7.906;2022-07-10T03:58:20;12.40;76.10
20057;DHT22;10189;49.546;7.906;2022-07-10T04:00:46;12.50;75.60
20057;DHT22;10189;49.546;7.906;2022-07-10T04:03:12;12.40;75.50
20057;DHT22;10189;49.546;7.906;2022-07-10T04:05:39;12.30;76.10
20057;DHT22;10189;49.546;7.906;2022-07-10T04:08:05;12.20;76.50
20057;DHT22;10189;49.546;7.906;2022-07-10T04:10:31;12.20;76.40
20057;DHT22;10189;49.546;7.906;2022-07-10T04:12:58;12.10;76.70
20057;DHT22;10189;49.546;7.906;2022-07-10T04:15:25;12.00;77.50
20057;DHT22;10189;49.546;7.906;2022-07-10T04:17:51;12.10;77.80
20057;DHT22;10189;49.546;7.906;2022-07-10T04:20:18;12.30;76.90
20057;DHT22;10189;49.546;7.906;2022-07-10T04:22:44;12.40;77.10
20057;DHT22;10189;49.546;7.906;2022-07-10T04:25:11;12.50;75.50
20057;DHT22;10189;49.546;7.906;2022-07-10T04:27:38;12.70;75.80
20057;DHT22;10189;49.546;7.906;2022-07-10T04:30:05;12.70;74.60
20057;DHT22;10189;49.546;7.906;2022-07-10T04:32:32;12.50;75.40
20057;DHT22;10189;49.546;7.906;2022-07-10T04:34:58;12.30;76.40
20057;DHT22;10189;49.546;7.906;2022-07-10T04:37:24;12.40;76.30
20057;DHT22;10189;49.546;7.906;2022-07-10T04:39:50;12.40;76.20
20057;DHT22;10189;49.546;7.906;2022-07-10T04:42:16;12.40;76.00
20057;DHT22;10189;49.546;7.906;2022-07-10T04:44:42;12.40;76.40
20057;DHT22;10189;49.546;7.906;2022-07-10T04:47:08;12.50;76.30
20057;DHT22;10189;49.546;7.906;2022-07-10T04:49:35;12.60;76.20
20057;DHT22;10189;49.546;7.906;2022-07-10T04:52:01;12.80;75.60
20057;DHT22;10189;49.546;7.906;2022-07-10T04:54:27;12.90;75.40
20057;DHT22;10189;49.546;7.906;2022-07-10T04:56:53;13.10;74.80
20057;DHT22;10189;49.546;7.906;2022-07-10T04:59:19;13.40;73.90
20057;DHT22;10189;49.546;7.906;2022-07-10T05:01:45;13.60;71.90
20057;DHT22;10189;49.546;7.906;2022-07-10T05:04:11;13.80;71.00
20057;DHT22;10189;49.546;7.906;2022-07-10T05:06:37;13.80;70.40
20057;DHT22;10189;49.546;7.906;2022-07-10T05:09:03;13.70;70.40
20057;DHT22;10189;49.546;7.906;2022-07-10T05:11:29;13.70;70.70
20057;DHT22;10189;49.546;7.906;2022-07-10T05:13:57;13.60;70.40
20057;DHT22;10189;49.546;7.906;2022-07-10T05:16:23;13.60;70.40
20057;DHT22;10189;49.546;7.906;2022-07-10T05:18:49;13.70;69.50
20057;DHT22;10189;49.546;7.906;2022-07-10T05:21:15;13.80;69.30
20057;DHT22;10189;49.546;7.906;2022-07-10T05:23:41;14.00;68.00
20057;DHT22;10189;49.546;7.906;2022-07-10T05:26:07;14.00;68.20
20057;DHT22;10189;49.546;7.906;2022-07-10T05:28:33;14.00;66.90
20057;DHT22;10189;49.546;7.906;2022-07-10T05:30:59;14.00;67.30
20057;DHT22;10189;49.546;7.906;2022-07-10T05:33:25;14.00;68.00
20057;DHT22;10189;49.546;7.906;2022-07-10T05:35:54;13.80;67.80
20057;DHT22;10189;49.546;7.906;2022-07-10T05:38:20;13.70;68.20
20057;DHT22;10189;49.546;7.906;2022-07-10T05:40:46;13.80;68.50
20057;DHT22;10189;49.546;7.906;2022-07-10T05:43:12;13.80;67.50
20057;DHT22;10189;49.546;7.906;2022-07-10T05:45:39;13.90;67.40
20057;DHT22;10189;49.546;7.906;2022-07-10T05:48:04;14.30;65.90
20057;DHT22;10189;49.546;7.906;2022-07-10T05:50:30;14.50;64.80
20057;DHT22;10189;49.546;7.906;2022-07-10T05:52:57;14.70;63.70
20057;DHT22;10189;49.546;7.906;2022-07-10T05:55:24;14.80;61.50
20057;DHT22;10189;49.546;7.906;2022-07-10T05:57:50;14.80;63.00
20057;DHT22;10189;49.546;7.906;2022-07-10T06:00:20;14.90;61.40
20057;DHT22;10189;49.546;7.906;2022-07-10T06:02:46;15.10;60.60
20057;DHT22;10189;49.546;7.906;2022-07-10T06:05:12;15.10;60.20
20057;DHT22;10189;49.546;7.906;2022-07-10T06:07:38;15.10;60.30
20057;DHT22;10189;49.546;7.906;2022-07-10T06:10:04;15.00;60.30
20057;DHT22;10189;49.546;7.906;2022-07-10T06:12:31;15.20;59.30
20057;DHT22;10189;49.546;7.906;2022-07-10T06:14:57;15.30;59.00
20057;DHT22;10189;49.546;7.906;2022-07-10T06:17:23;15.50;58.70
20057;DHT22;10189;49.546;7.906;2022-07-10T06:19:49;15.70;59.20
20057;DHT22;10189;49.546;7.906;2022-07-10T06:22:15;15.70;58.20
20057;DHT22;10189;49.546;7.906;2022-07-10T06:25:03;16.00;58.10
20057;DHT22;10189;49.546;7.906;2022-07-10T06:27:31;16.10;57.50
20057;DHT22;10189;49.546;7.906;2022-07-10T06:29:58;15.90;56.70
20057;DHT22;10189;49.546;7.906;2022-07-10T06:32:25;15.60;56.00
20057;DHT22;10189;49.546;7.906;2022-07-10T06:34:53;15.30;55.80
20057;DHT22;10189;49.546;7.906;2022-07-10T06:37:20;15.10;56.40
20057;DHT22;10189;49.546;7.906;2022-07-10T06:39:47;15.00;56.60
20057;DHT22;10189;49.546;7.906;2022-07-10T06:42:13;15.00;57.30
20057;DHT22;10189;49.546;7.906;2022-07-10T06:44:44;15.00;57.20
20057;DHT22;10189;49.546;7.906;2022-07-10T06:47:12;14.90;56.80
20057;DHT22;10189;49.546;7.906;2022-07-10T06:49:58;15.30;56.90
20057;DHT22;10189;49.546;7.906;2022-07-10T06:52:25;15.90;54.70
20057;DHT22;10189;49.546;7.906;2022-07-10T06:54:52;16.30;54.20
20057;DHT22;10189;49.546;7.906;2022-07-10T06:57:18;16.50;53.00
20057;DHT22;10189;49.546;7.906;2022-07-10T06:59:45;16.40;52.90
20057;DHT22;10189;49.546;7.906;2022-07-10T07:02:12;16.30;53.20
20057;DHT22;10189;49.546;7.906;2022-07-10T07:04:38;16.10;52.70
20057;DHT22;10189;49.546;7.906;2022-07-10T07:07:04;15.70;51.40
20057;DHT22;10189;49.546;7.906;2022-07-10T07:09:30;15.30;53.30
20057;DHT22;10189;49.546;7.906;2022-07-10T07:11:56;15.00;53.50
20057;DHT22;10189;49.546;7.906;2022-07-10T07:14:21;14.90;54.10
20057;DHT22;10189;49.546;7.906;2022-07-10T07:16:47;15.00;54.20
20057;DHT22;10189;49.546;7.906;2022-07-10T07:19:24;15.20;54.00
20057;DHT22;10189;49.546;7.906;2022-07-10T07:22:00;15.40;53.60
20057;DHT22;10189;49.546;7.906;2022-07-10T07:24:45;15.50;54.00
20057;DHT22;10189;49.546;7.906;2022-07-10T07:27:11;15.60;52.40
20057;DHT22;10189;49.546;7.906;2022-07-10T07:29:37;15.60;51.80
20057;DHT22;10189;49.546;7.906;2022-07-10T07:32:04;15.30;53.00
20057;DHT22;10189;49.546;7.906;2022-07-10T07:34:30;15.20;55.20
20057;DHT22;10189;49.546;7.906;2022-07-10T07:36:57;15.40;54.80
20057;DHT22;10189;49.546;7.906;2022-07-10T07:39:23;15.70;54.20
20057;DHT22;10189;49.546;7.906;2022-07-10T07:41:50;15.90;53.60
20057;DHT22;10189;49.546;7.906;2022-07-10T07:44:16;16.10;52.60
20057;DHT22;10189;49.546;7.906;2022-07-10T07:46:43;16.30;50.90
20057;DHT22;10189;49.546;7.906;2022-07-10T07:49:10;16.40;50.20
20057;DHT22;10189;49.546;7.906;2022-07-10T07:51:36;16.50;50.50
20057;DHT22;10189;49.546;7.906;2022-07-10T07:54:02;16.70;48.90
20057;DHT22;10189;49.546;7.906;2022-07-10T07:56:28;16.90;51.00
20057;DHT22;10189;49.546;7.906;2022-07-10T07:58:54;17.00;48.60
20057;DHT22;10189;49.546;7.906;2022-07-10T08:01:19;16.60;50.40
20057;DHT22;10189;49.546;7.906;2022-07-10T08:03:45;16.30;51.30
20057;DHT22;10189;49.546;7.906;2022-07-10T08:06:11;16.00;51.00
20057;DHT22;10189;49.546;7.906;2022-07-10T08:08:37;15.90;51.80
20057;DHT22;10189;49.546;7.906;2022-07-10T08:11:03;15.90;52.40
20057;DHT22;10189;49.546;7.906;2022-07-10T08:13:29;16.00;51.40
20057;DHT22;10189;49.546;7.906;2022-07-10T08:15:55;16.00;51.10
20057;DHT22;10189;49.546;7.906;2022-07-10T08:18:21;16.00;51.90
20057;DHT22;10189;49.546;7.906;2022-07-10T08:20:47;16.10;50.90
20057;DHT22;10189;49.546;7.906;2022-07-10T08:23:13;16.10;51.00
20057;DHT22;10189;49.546;7.906;2022-07-10T08:25:39;16.10;51.20
20057;DHT22;10189;49.546;7.906;2022-07-10T08:28:05;16.10;50.80
20057;DHT22;10189;49.546;7.906;2022-07-10T08:30:37;16.10;51.00
20057;DHT22;10189;49.546;7.906;2022-07-10T08:33:03;16.20;51.90
20057;DHT22;10189;49.546;7.906;2022-07-10T08:35:30;16.30;50.40
20057;DHT22;10189;49.546;7.906;2022-07-10T08:37:56;16.20;51.20
20057;DHT22;10189;49.546;7.906;2022-07-10T08:40:23;16.30;50.90
20057;DHT22;10189;49.546;7.906;2022-07-10T08:42:49;16.60;50.20
20057;DHT22;10189;49.546;7.906;2022-07-10T08:45:15;17.00;50.40
20057;DHT22;10189;49.546;7.906;2022-07-10T08:47:41;17.40;48.80
20057;DHT22;10189;49.546;7.906;2022-07-10T08:50:23;17.60;48.20
20057;DHT22;10189;49.546;7.906;2022-07-10T08:53:20;17.80;48.30
20057;DHT22;10189;49.546;7.906;2022-07-10T08:55:49;17.90;49.40
20057;DHT22;10189;49.546;7.906;2022-07-10T08:58:17;17.90;47.50
20057;DHT22;10189;49.546;7.906;2022-07-10T09:00:45;18.10;47.80
20057;DHT22;10189;49.546;7.906;2022-07-10T09:03:11;18.30;46.60
20057;DHT22;10189;49.546;7.906;2022-07-10T09:05:37;18.40;46.90
20057;DHT22;10189;49.546;7.906;2022-07-10T09:08:03;18.60;45.90
20057;DHT22;10189;49.546;7.906;2022-07-10T09:10:29;18.60;45.20
20057;DHT22;10189;49.546;7.906;2022-07-10T09:12:57;18.60;46.40
20057;DHT22;10189;49.546;7.906;2022-07-10T09:15:27;18.60;44.70
20057;DHT22;10189;49.546;7.906;2022-07-10T09:18:02;18.50;46.70
20057;DHT22;10189;49.546;7.906;2022-07-10T09:23:18;18.30;47.30
20057;DHT22;10189;49.546;7.906;2022-07-10T09:25:47;18.30;46.70
20057;DHT22;10189;49.546;7.906;2022-07-10T09:28:17;18.20;46.90
20057;DHT22;10189;49.546;7.906;2022-07-10T09:30:47;18.40;46.10
20057;DHT22;10189;49.546;7.906;2022-07-10T09:36:05;17.60;47.40
20057;DHT22;10189;49.546;7.906;2022-07-10T09:43:58;17.80;46.90
20057;DHT22;10189;49.546;7.906;2022-07-10T09:46:33;18.10;47.40
20057;DHT22;10189;49.546;7.906;2022-07-10T09:49:09;18.20;44.90
20057;DHT22;10189;49.546;7.906;2022-07-10T09:51:45;18.10;45.20
20057;DHT22;10189;49.546;7.906;2022-07-10T09:54:12;18.10;45.80
20057;DHT22;10189;49.546;7.906;2022-07-10T09:56:46;18.40;45.80
20057;DHT22;10189;49.546;7.906;2022-07-10T09:59:18;18.40;45.00
20057;DHT22;10189;49.546;7.906;2022-07-10T10:01:50;18.20;46.10
20057;DHT22;10189;49.546;7.906;2022-07-10T10:04:19;18.20;46.00
20057;DHT22;10189;49.546;7.906;2022-07-10T10:06:51;18.30;45.00
20057;DHT22;10189;49.546;7.906;2022-07-10T10:11:57;18.40;45.10
20057;DHT22;10189;49.546;7.906;2022-07-10T10:14:28;18.60;44.50
20057;DHT22;10189;49.546;7.906;2022-07-10T10:16:56;18.60;44.40
20057;DHT22;10189;49.546;7.906;2022-07-10T10:19:26;18.80;45.20
20057;DHT22;10189;49.546;7.906;2022-07-10T10:22:12;18.80;45.50
20057;DHT22;10189;49.546;7.906;2022-07-10T10:24:41;19.10;43.60
20057;DHT22;10189;49.546;7.906;2022-07-10T10:27:08;19.10;43.60
20057;DHT22;10189;49.546;7.906;2022-07-10T10:29:36;19.10;44.80
20057;DHT22;10189;49.546;7.906;2022-07-10T10:32:03;19.30;45.20
20057;DHT22;10189;49.546;7.906;2022-07-10T10:34:47;19.70;44.10
20057;DHT22;10189;49.546;7.906;2022-07-10T10:39:56;19.90;42.40
20057;DHT22;10189;49.546;7.906;2022-07-10T10:42:55;20.10;42.20
20057;DHT22;10189;49.546;7.906;2022-07-10T10:45:31;20.30;41.90
20057;DHT22;10189;49.546;7.906;2022-07-10T10:48:07;20.60;41.90
20057;DHT22;10189;49.546;7.906;2022-07-10T10:50:39;20.30;42.50
20057;DHT22;10189;49.546;7.906;2022-07-10T10:53:26;20.30;43.20
20057;DHT22;10189;49.546;7.906;2022-07-10T10:58:26;20.30;42.20
20057;DHT22;10189;49.546;7.906;2022-07-10T11:01:29;20.60;43.30
20057;DHT22;10189;49.546;7.906;2022-07-10T11:06:52;21.10;42.20
20057;DHT22;10189;49.546;7.906;2022-07-10T11:09:29;21.10;41.60
20057;DHT22;10189;49.546;7.906;2022-07-10T11:12:06;21.20;42.20
20057;DHT22;10189;49.546;7.906;2022-07-10T11:14:36;20.80;41.90
20057;DHT22;10189;49.546;7.906;2022-07-10T11:17:04;20.50;43.30
20057;DHT22;10189;49.546;7.906;2022-07-10T11:19:32;20.30;43.30
20057;DHT22;10189;49.546;7.906;2022-07-10T11:25:51;19.50;44.70
20057;DHT22;10189;49.546;7.906;2022-07-10T11:28:49;19.30;45.00
20057;DHT22;10189;49.546;7.906;2022-07-10T11:31:27;19.40;45.10
20057;DHT22;10189;49.546;7.906;2022-07-10T11:33:55;19.50;45.40
20057;DHT22;10189;49.546;7.906;2022-07-10T11:36:23;19.60;44.70
20057;DHT22;10189;49.546;7.906;2022-07-10T11:39:01;19.50;44.80
20057;DHT22;10189;49.546;7.906;2022-07-10T11:41:41;19.70;45.30
20057;DHT22;10189;49.546;7.906;2022-07-10T11:44:16;19.70;45.30
20057;DHT22;10189;49.546;7.906;2022-07-10T11:46:44;20.00;45.80
20057;DHT22;10189;49.546;7.906;2022-07-10T11:49:12;20.20;44.50
20057;DHT22;10189;49.546;7.906;2022-07-10T11:51:41;20.40;44.10
20057;DHT22;10189;49.546;7.906;2022-07-10T11:54:10;20.60;43.40
20057;DHT22;10189;49.546;7.906;2022-07-10T11:56:40;20.80;42.80
20057;DHT22;10189;49.546;7.906;2022-07-10T11:59:11;21.40;42.90
20057;DHT22;10189;49.546;7.906;2022-07-10T12:01:46;21.80;41.30
20057;DHT22;10189;49.546;7.906;2022-07-10T12:04:16;22.00;41.80
20057;DHT22;10189;49.546;7.906;2022-07-10T12:06:44;22.20;40.80
20057;DHT22;10189;49.546;7.906;2022-07-10T12:09:17;22.40;40.70
20057;DHT22;10189;49.546;7.906;2022-07-10T12:11:58;22.30;40.30
20057;DHT22;10189;49.546;7.906;2022-07-10T12:14:28;22.30;39.70
20057;DHT22;10189;49.546;7.906;2022-07-10T12:16:56;22.60;40.50
20057;DHT22;10189;49.546;7.906;2022-07-10T12:19:24;22.80;40.40
20057;DHT22;10189;49.546;7.906;2022-07-10T12:22:02;22.60;40.00
20057;DHT22;10189;49.546;7.906;2022-07-10T12:24:30;22.40;40.10
20057;DHT22;10189;49.546;7.906;2022-07-10T12:26:57;22.20;41.10
20057;DHT22;10189;49.546;7.906;2022-07-10T12:29:29;22.10;40.80
20057;DHT22;10189;49.546;7.906;2022-07-10T12:31:57;21.90;42.00
20057;DHT22;10189;49.546;7.906;2022-07-10T12:37:09;21.90;41.50
20057;DHT22;10189;49.546;7.906;2022-07-10T12:39:37;21.80;41.90
20057;DHT22;10189;49.546;7.906;2022-07-10T12:42:11;21.80;41.40
20057;DHT22;10189;49.546;7.906;2022-07-10T12:44:45;22.00;41.10
20057;DHT22;10189;49.546;7.906;2022-07-10T12:47:16;22.20;41.50
20057;DHT22;10189;49.546;7.906;2022-07-10T12:50:03;22.40;41.40
20057;DHT22;10189;49.546;7.906;2022-07-10T12:52:32;22.50;40.80
20057;DHT22;10189;49.546;7.906;2022-07-10T12:57:53;21.60;42.00
20057;DHT22;10189;49.546;7.906;2022-07-10T13:00:24;21.40;41.10
20057;DHT22;10189;49.546;7.906;2022-07-10T13:02:59;21.20;42.20
20057;DHT22;10189;49.546;7.906;2022-07-10T13:05:27;21.00;42.90
20057;DHT22;10189;49.546;7.906;2022-07-10T13:13:19;21.00;43.50
20057;DHT22;10189;49.546;7.906;2022-07-10T13:15:46;21.20;44.10
20057;DHT22;10189;49.546;7.906;2022-07-10T13:18:16;21.60;42.80
20057;DHT22;10189;49.546;7.906;2022-07-10T13:20:45;21.80;42.40
20057;DHT22;10189;49.546;7.906;2022-07-10T13:23:11;22.40;43.60
20057;DHT22;10189;49.546;7.906;2022-07-10T13:25:38;22.70;41.20
20057;DHT22;10189;49.546;7.906;2022-07-10T13:28:07;22.70;40.40
20057;DHT22;10189;49.546;7.906;2022-07-10T13:30:36;22.40;42.10
20057;DHT22;10189;49.546;7.906;2022-07-10T13:33:02;22.10;42.30
20057;DHT22;10189;49.546;7.906;2022-07-10T13:35:29;21.80;42.40
20057;DHT22;10189;49.546;7.906;2022-07-10T13:37:57;21.70;42.70
20057;DHT22;10189;49.546;7.906;2022-07-10T13:40:29;21.50;43.10
20057;DHT22;10189;49.546;7.906;2022-07-10T13:42:57;21.50;43.60
20057;DHT22;10189;49.546;7.906;2022-07-10T13:45:24;21.40;43.80
20057;DHT22;10189;49.546;7.906;2022-07-10T13:47:52;21.30;44.20
20057;DHT22;10189;49.546;7.906;2022-07-10T13:50:20;21.00;44.20
20057;DHT22;10189;49.546;7.906;2022-07-10T13:52:46;21.10;43.90
20057;DHT22;10189;49.546;7.906;2022-07-10T13:55:12;21.00;44.80
20057;DHT22;10189;49.546;7.906;2022-07-10T13:57:39;21.00;45.10
20057;DHT22;10189;49.546;7.906;2022-07-10T14:00:06;21.00;44.50
20057;DHT22;10189;49.546;7.906;2022-07-10T14:02:37;21.10;45.40
20057;DHT22;10189;49.546;7.906;2022-07-10T14:05:04;21.10;45.40
20057;DHT22;10189;49.546;7.906;2022-07-10T14:07:31;21.30;44.70
20057;DHT22;10189;49.546;7.906;2022-07-10T14:09:57;21.40;44.80
20057;DHT22;10189;49.546;7.906;2022-07-10T14:12:24;21.00;44.70
20057;DHT22;10189;49.546;7.906;2022-07-10T14:14:50;20.80;45.80
20057;DHT22;10189;49.546;7.906;2022-07-10T14:17:16;21.30;46.00
20057;DHT22;10189;49.546;7.906;2022-07-10T14:19:41;21.50;44.20
20057;DHT22;10189;49.546;7.906;2022-07-10T14:22:08;21.00;44.30
20057;DHT22;10189;49.546;7.906;2022-07-10T14:24:34;20.80;45.30
20057;DHT22;10189;49.546;7.906;2022-07-10T14:27:00;20.80;45.80
20057;DHT22;10189;49.546;7.906;2022-07-10T14:29:26;20.80;45.40
20057;DHT22;10189;49.546;7.906;2022-07-10T14:31:52;20.80;45.20
20057;DHT22;10189;49.546;7.906;2022-07-10T14:34:19;20.90;45.20
20057;DHT22;10189;49.546;7.906;2022-07-10T14:36:45;20.80;45.40
20057;DHT22;10189;49.546;7.906;2022-07-10T14:39:11;20.80;45.40
20057;DHT22;10189;49.546;7.906;2022-07-10T14:41:38;20.70;46.00
20057;DHT22;10189;49.546;7.906;2022-07-10T14:44:05;20.80;45.50
20057;DHT22;10189;49.546;7.906;2022-07-10T14:46:32;20.90;44.40
20057;DHT22;10189;49.546;7.906;2022-07-10T14:48:59;20.90;45.10
20057;DHT22;10189;49.546;7.906;2022-07-10T14:51:25;21.00;45.10
20057;DHT22;10189;49.546;7.906;2022-07-10T14:53:51;21.20;44.90
20057;DHT22;10189;49.546;7.906;2022-07-10T14:56:17;21.30;44.70
20057;DHT22;10189;49.546;7.906;2022-07-10T14:58:45;21.30;45.10
20057;DHT22;10189;49.546;7.906;2022-07-10T15:01:12;21.30;45.30
20057;DHT22;10189;49.546;7.906;2022-07-10T15:03:38;21.30;44.40
20057;DHT22;10189;49.546;7.906;2022-07-10T15:06:04;21.30;45.00
20057;DHT22;10189;49.546;7.906;2022-07-10T15:08:31;21.30;44.90
20057;DHT22;10189;49.546;7.906;2022-07-10T15:10:57;21.20;45.10
20057;DHT22;10189;49.546;7.906;2022-07-10T15:13:26;21.40;44.80
20057;DHT22;10189;49.546;7.906;2022-07-10T15:15:53;21.40;44.20
20057;DHT22;10189;49.546;7.906;2022-07-10T15:18:19;21.10;45.50
20057;DHT22;10189;49.546;7.906;2022-07-10T15:20:46;21.20;45.50
20057;DHT22;10189;49.546;7.906;2022-07-10T15:23:12;21.20;45.10
20057;DHT22;10189;49.546;7.906;2022-07-10T15:25:40;21.10;45.70
20057;DHT22;10189;49.546;7.906;2022-07-10T15:28:10;21.00;46.00
20057;DHT22;10189;49.546;7.906;2022-07-10T15:30:37;21.10;45.80
20057;DHT22;10189;49.546;7.906;2022-07-10T15:33:04;21.10;46.10
20057;DHT22;10189;49.546;7.906;2022-07-10T15:35:31;21.20;46.00
20057;DHT22;10189;49.546;7.906;2022-07-10T15:37:58;20.90;45.90
20057;DHT22;10189;49.546;7.906;2022-07-10T15:40:30;20.80;45.90
20057;DHT22;10189;49.546;7.906;2022-07-10T15:42:57;20.70;46.40
20057;DHT22;10189;49.546;7.906;2022-07-10T15:45:24;20.80;46.40
20057;DHT22;10189;49.546;7.906;2022-07-10T15:47:51;21.20;46.30
20057;DHT22;10189;49.546;7.906;2022-07-10T15:50:18;21.20;45.70
20057;DHT22;10189;49.546;7.906;2022-07-10T15:52:44;21.20;46.40
20057;DHT22;10189;49.546;7.906;2022-07-10T15:55:11;21.00;45.70
20057;DHT22;10189;49.546;7.906;2022-07-10T15:57:39;21.00;46.20
20057;DHT22;10189;49.546;7.906;2022-07-10T16:00:06;21.50;45.70
20057;DHT22;10189;49.546;7.906;2022-07-10T16:02:33;22.00;45.10
20057;DHT22;10189;49.546;7.906;2022-07-10T16:05:00;22.40;44.30
20057;DHT22;10189;49.546;7.906;2022-07-10T16:07:27;22.00;44.60
20057;DHT22;10189;49.546;7.906;2022-07-10T16:09:53;21.80;45.10
20057;DHT22;10189;49.546;7.906;2022-07-10T16:12:19;21.50;45.30